Time;durP1;ratioP1;P1;durP2;ratioP2;P2;SDS_P1;SDS_P2;PMS_P1;PMS_P2;Temp;Humidity;BMP_temperature;BMP_pressure;BME280_temperature;BME280_humidity;BME280_pressure;Samples;Min_cycle;Max_cycle;Signal;HPM_P1;HPM_P2
2021/09/17 00:05:00;;;;;;;1999.90;999.90;;;;;;;18.36;73.63;100879.56;15848002;28;20107;-58
2021/09/17 00:12:32;;;;;;;1999.90;999.90;;;;;;;18.46;73.21;100876.88;15851218;28;20075;-59
2021/09/17 00:20:30;;;;;;;1999.90;999.90;;;;;;;18.69;72.59;100873.16;15834874;28;20040;-60
2021/09/17 00:28:02;;;;;;;1999.90;999.90;;;;;;;18.58;72.75;100867.34;15792272;28;20040;-60
2021/09/17 00:35:36;;;;;;;1999.90;999.90;;;;;;;18.30;74.10;100864.94;15819118;28;20044;-60
2021/09/17 00:43:08;;;;;;;1999.90;999.90;;;;;;;18.31;73.73;100862.91;15822876;28;20500;-59
2021/09/17 00:50:42;;;;;;;1999.90;999.90;;;;;;;18.32;74.20;100850.41;15855214;28;20035;-59
2021/09/17 00:58:20;;;;;;;1999.90;999.90;;;;;;;18.35;73.92;100852.50;15844347;28;20047;-59
2021/09/17 01:05:54;;;;;;;1999.90;999.90;;;;;;;18.31;73.90;100857.28;15826825;28;20476;-60
2021/09/17 01:13:28;;;;;;;1999.90;999.90;;;;;;;18.18;74.07;100860.34;15820428;28;20430;-58
2021/09/17 01:21:04;;;;;;;1999.90;999.90;;;;;;;18.25;73.88;100853.16;15844425;28;20067;-60
2021/09/17 01:28:36;;;;;;;1999.90;999.90;;;;;;;18.35;73.09;100846.84;15831002;28;20075;-58
2021/09/17 01:36:11;;;;;;;1999.90;999.90;;;;;;;18.44;72.77;100847.34;15863554;28;20048;-61
2021/09/17 01:43:43;;;;;;;1999.90;999.90;;;;;;;18.33;73.08;100844.38;15838152;28;20188;-59
2021/09/17 01:51:17;;;;;;;1999.90;999.90;;;;;;;18.37;72.83;100841.63;15852783;28;20501;-58
2021/09/17 01:58:49;;;;;;;1999.90;999.90;;;;;;;18.36;72.77;100838.00;15827554;28;20102;-59
2021/09/17 02:06:26;;;;;;;1999.90;999.90;;;;;;;18.25;73.29;100833.41;15813783;28;20051;-57
2021/09/17 02:14:38;;;;;;;;;;;;;;;;;;;;;
2021/09/17 02:22:44;;;;;;;;;;;;;;;;;;;;;
2021/09/17 02:30:24;;;;;;;1999.90;999.90;;;;;;;17.88;74.34;100817.13;15839349;28;20502;-59
2021/09/17 02:38:06;;;;;;;1999.90;999.90;;;;;;;17.96;76.90;100823.69;15839912;28;20087;-60
2021/09/17 02:45:39;;;;;;;1999.90;999.90;;;;;;;17.98;78.80;100838.25;15821868;28;20043;-58
2021/09/17 02:53:12;;;;;;;1999.90;999.90;;;;;;;17.71;80.40;100821.28;15854405;28;20051;-59
2021/09/17 03:00:46;;;;;;;1999.90;999.90;;;;;;;17.56;81.39;100813.78;15840885;28;20039;-58
2021/09/17 03:08:23;;;;;;;1999.90;999.90;;;;;;;17.39;81.63;100823.56;15849451;28;20071;-58
2021/09/17 03:15:56;;;;;;;1999.90;999.90;;;;;;;17.44;81.60;100813.97;15853054;28;20119;-58
2021/09/17 03:23:30;;;;;;;1999.90;999.90;;;;;;;17.53;80.90;100809.72;15860954;28;20047;-60
2021/09/17 03:31:02;;;;;;;1999.90;999.90;;;;;;;17.12;82.52;100821.88;15854796;28;20047;-59
2021/09/17 03:38:51;;;;;;;1999.90;999.90;;;;;;;16.59;82.62;100808.38;15842973;28;20524;-59
2021/09/17 03:46:26;;;;;;;1999.90;999.90;;;;;;;16.81;81.19;100800.34;15841415;28;20038;-60
2021/09/17 03:54:16;;;;;;;1999.90;999.90;;;;;;;16.89;80.92;100797.31;15858489;28;20067;-59
2021/09/17 04:01:48;;;;;;;1999.90;999.90;;;;;;;16.89;80.16;100794.50;15827082;28;20138;-60
2021/09/17 04:09:32;;;;;;;1999.90;999.90;;;;;;;17.11;80.76;100797.69;15851177;28;20043;-60
2021/09/17 04:17:04;;;;;;;;;;;;;;;17.34;80.10;100798.50;15838949;28;20054;-59
2021/09/17 04:24:37;;;;;;;1999.90;999.90;;;;;;;17.16;80.40;100794.56;15822628;28;19919;-61
2021/09/17 04:32:10;;;;;;;1999.90;999.90;;;;;;;17.30;79.98;100784.34;15864125;28;20043;-61
2021/09/17 04:39:44;;;;;;;1999.90;999.90;;;;;;;16.85;81.63;100804.88;15832692;28;20048;-61
2021/09/17 04:47:16;;;;;;;1999.90;999.90;;;;;;;16.70;81.26;100812.22;15828877;28;20051;-60
2021/09/17 04:54:51;;;;;;;1999.90;999.90;;;;;;;16.65;81.08;100817.31;15856613;28;20113;-57
2021/09/17 05:02:24;;;;;;;1999.90;999.90;;;;;;;16.69;80.88;100809.78;15821283;28;20537;-60
2021/09/17 05:09:58;;;;;;;1999.90;999.90;;;;;;;16.79;80.85;100803.56;15809064;28;20046;-59
2021/09/17 05:17:31;;;;;;;1999.90;999.90;;;;;;;16.70;81.02;100802.97;15847852;28;20134;-59
2021/09/17 05:25:13;;;;;;;1999.90;999.90;;;;;;;16.70;81.72;100815.06;15844716;28;20048;-59
2021/09/17 05:32:48;;;;;;;1999.90;999.90;;;;;;;16.76;81.28;100826.81;15847326;28;20051;-59
2021/09/17 05:40:23;;;;;;;1999.90;999.90;;;;;;;16.54;81.88;100808.66;15830285;28;20400;-60
2021/09/17 05:48:01;;;;;;;1999.90;999.90;;;;;;;16.73;81.68;100813.47;15844576;28;20052;-62
2021/09/17 05:55:35;;;;;;;1999.90;999.90;;;;;;;16.94;81.75;100813.91;15836953;28;20042;-59
2021/09/17 06:03:12;;;;;;;1999.90;999.90;;;;;;;16.94;81.23;100821.53;15830466;28;20043;-60
2021/09/17 06:10:49;;;;;;;1999.90;999.90;;;;;;;17.18;80.66;100826.00;15864070;28;20046;-62
2021/09/17 06:18:21;;;;;;;1999.90;999.90;;;;;;;17.25;80.04;100832.59;15869712;28;20055;-61
2021/09/17 06:25:56;;;;;;;1999.90;999.90;;;;;;;16.99;80.88;100827.69;15876189;28;20044;-61
2021/09/17 06:33:37;;;;;;;1999.90;999.90;;;;;;;17.11;79.63;100832.34;15857508;28;20044;-61
2021/09/17 06:41:12;;;;;;;1999.90;999.90;;;;;;;17.31;79.16;100828.28;15875472;28;20039;-61
2021/09/17 06:48:45;;;;;;;1999.90;999.90;;;;;;;17.47;78.57;100841.41;15871556;27;20122;-61
2021/09/17 06:56:18;;;;;;;1999.90;999.90;;;;;;;17.12;77.66;100833.97;15891773;27;20039;-61
2021/09/17 07:03:50;;;;;;;1999.90;999.90;;;;;;;17.12;76.79;100821.88;15901106;27;20044;-60
2021/09/17 07:11:46;;;;;;;1999.90;999.90;;;;;;;17.42;74.95;100833.28;15834613;27;20417;-61
2021/09/17 07:19:18;;;;;;;1999.90;999.90;;;;;;;17.62;72.58;100832.03;15870502;28;20465;-59
2021/09/17 07:26:52;;;;;;;1999.90;999.90;;;;;;;17.92;70.75;100840.56;15851559;28;20047;-56
2021/09/17 07:34:24;;;;;;;1999.90;999.90;;;;;;;17.95;69.49;100830.53;15870663;28;20074;-59
2021/09/17 07:41:58;;;;;;;1999.90;999.90;;;;;;;17.99;69.06;100837.03;15851083;28;20035;-60
2021/09/17 07:49:30;;;;;;;1999.90;999.90;;;;;;;18.06;68.39;100837.97;15867071;28;20071;-57
2021/09/17 07:57:04;;;;;;;1999.90;999.90;;;;;;;18.00;67.65;100841.50;15857072;27;20047;-62
2021/09/17 08:04:38;;;;;;;1999.90;999.90;;;;;;;18.38;67.85;100846.06;15874850;27;20043;-61
2021/09/17 08:12:12;;;;;;;1999.90;999.90;;;;;;;18.27;66.10;100850.78;15924010;27;20043;-60
2021/09/17 08:19:44;;;;;;;1999.90;999.90;;;;;;;18.20;66.11;100861.97;15895495;27;20067;-59
2021/09/17 08:27:25;;;;;;;1999.90;999.90;;;;;;;18.04;67.94;100857.31;15864736;27;20047;-61
2021/09/17 08:34:57;;;;;;;1999.90;999.90;;;;;;;17.92;67.91;100854.69;15850042;28;20036;-60
2021/09/17 08:42:32;;;;;;;1999.90;999.90;;;;;;;17.96;68.50;100874.50;15867882;28;20047;-61
2021/09/17 08:50:07;;;;;;;1999.90;999.90;;;;;;;17.43;70.01;100868.75;15850908;28;20043;-62
2021/09/17 08:57:42;;;;;;;;;;;;;;;17.70;69.75;100876.09;15849954;28;20047;-59
2021/09/17 09:05:14;;;;;;;1999.90;999.90;;;;;;;17.53;69.21;100882.25;15868502;28;19975;-60
2021/09/17 09:12:50;;;;;;;1999.90;999.90;;;;;;;18.03;68.44;100883.06;15845882;28;20047;-60
2021/09/17 09:20:28;;;;;;;1999.90;999.90;;;;;;;18.33;65.56;100878.28;15888871;27;20540;-59
2021/09/17 09:28:15;;;;;;;1999.90;999.90;;;;;;;18.50;63.94;100876.09;15870647;27;20409;-58
2021/09/17 09:35:47;;;;;;;1999.90;999.90;;;;;;;18.20;62.66;100885.38;15865768;28;20039;-59
2021/09/17 09:43:36;;;;;;;1999.90;999.90;;;;;;;17.92;65.15;100876.44;15847939;28;20085;-59
2021/09/17 09:51:10;;;;;;;1999.90;999.90;;;;;;;18.12;65.06;100877.97;15892428;27;20110;-58
2021/09/17 09:58:45;;;;;;;1999.90;999.90;;;;;;;17.89;64.47;100876.00;15898891;27;20050;-57
2021/09/17 10:06:18;;;;;;;1999.90;999.90;;;;;;;18.18;64.03;100882.13;15911000;27;20071;-58
2021/09/17 10:13:54;;;;;;;1999.90;999.90;;;;;;;18.49;64.49;100885.78;15895943;27;20036;-60
2021/09/17 10:21:48;;;;;;;1999.90;999.90;;;;;;;18.71;63.05;100882.88;15874871;27;20142;-59
2021/09/17 10:29:30;;;;;;;1999.90;999.90;;;;;;;18.57;62.71;100885.50;15902024;27;20454;-60
2021/09/17 10:37:04;;;;;;;1999.90;999.90;;;;;;;18.47;63.14;100883.34;15881236;27;20040;-60
2021/09/17 10:45:14;;;;;;;1999.90;999.90;;;;;;;18.65;64.47;100875.94;15859486;27;20040;-60
2021/09/17 10:52:50;;;;;;;1999.90;999.90;;;;;;;18.71;64.99;100887.72;15873983;28;20074;-61
2021/09/17 11:00:53;;;;;;;1999.90;999.90;;;;;;;19.12;64.13;100882.13;15858522;27;20043;-61
2021/09/17 11:08:44;;;;;;;1999.90;999.90;;;;;;;19.43;60.46;100872.34;15889557;27;20051;-60
2021/09/17 11:16:18;;;;;;;1999.90;999.90;;;;;;;19.21;59.63;100879.81;15882005;27;20036;-58
2021/09/17 11:23:52;;;;;;;1999.90;999.90;;;;;;;18.97;59.60;100881.19;15852349;27;20097;-59
2021/09/17 11:31:26;;;;;;;1999.90;999.90;;;;;;;19.20;60.17;100876.19;15871606;27;20484;-60
2021/09/17 11:39:11;;;;;;;1999.90;999.90;;;;;;;19.36;60.41;100877.94;15868948;27;20043;-60
2021/09/17 11:46:46;;;;;;;1999.90;999.90;;;;;;;19.41;60.55;100881.25;15870112;28;20061;-61
2021/09/17 11:54:21;;;;;;;1999.90;999.90;;;;;;;18.74;60.37;100876.44;15848545;27;20032;-61
2021/09/17 12:02:11;;;;;;;1999.90;999.90;;;;;;;18.47;62.64;100889.00;15850983;27;20068;-60
2021/09/17 12:09:45;;;;;;;1999.90;999.90;;;;;;;18.88;63.36;100869.34;15847426;28;20066;-61
2021/09/17 12:17:17;;;;;;;1999.90;999.90;;;;;;;21.20;57.72;100886.84;15871714;27;20142;-61
2021/09/17 12:25:02;;;;;;;1999.90;999.90;;;;;;;21.97;52.72;100884.50;15847098;28;20071;-61
2021/09/17 12:32:37;;;;;;;1999.90;999.90;;;;;;;19.85;58.39;100888.94;15861702;28;20504;-61
2021/09/17 12:40:14;;;;;;;1999.90;999.90;;;;;;;19.62;58.49;100891.97;15838887;28;20074;-60
2021/09/17 12:47:52;;;;;;;1999.90;999.90;;;;;;;19.70;57.71;100899.34;15864920;28;20051;-61
2021/09/17 12:55:28;;;;;;;1999.90;999.90;;;;;;;19.53;58.18;100897.94;15851538;28;20485;-60
2021/09/17 13:03:04;;;;;;;1999.90;999.90;;;;;;;19.53;60.49;100905.59;15854374;28;20055;-61
2021/09/17 13:10:40;;;;;;;1999.90;999.90;;;;;;;19.44;60.08;100902.28;15861854;28;20677;-59
2021/09/17 13:18:12;;;;;;;1999.90;999.90;;;;;;;19.56;59.58;100910.50;15862719;27;20100;-60
2021/09/17 13:25:48;;;;;;;1999.90;999.90;;;;;;;19.21;59.47;100893.97;15871172;27;20126;-60
2021/09/17 13:33:21;;;;;;;1999.90;999.90;;;;;;;18.71;60.76;100910.31;15861929;28;20046;-57
2021/09/17 13:40:55;;;;;;;1999.90;999.90;;;;;;;18.90;60.87;100909.34;15861874;28;20067;-60
2021/09/17 13:48:27;;;;;;;1999.90;999.90;;;;;;;18.87;60.69;100905.28;15877396;28;20148;-60
2021/09/17 13:56:00;;;;;;;1999.90;999.90;;;;;;;18.90;60.50;100913.00;15871306;28;20564;-56
2021/09/17 14:03:33;;;;;;;1999.90;999.90;;;;;;;19.04;59.61;100904.69;15864613;28;20126;-58
2021/09/17 14:11:06;;;;;;;1999.90;999.90;;;;;;;19.64;57.79;100902.91;15854198;28;20038;-60
2021/09/17 14:18:39;;;;;;;1999.90;999.90;;;;;;;20.03;56.75;100894.75;15881379;28;20040;-58
2021/09/17 14:26:12;;;;;;;1999.90;999.90;;;;;;;19.21;57.49;100899.63;15825330;28;20125;-60
2021/09/17 14:33:45;;;;;;;1999.90;999.90;;;;;;;18.92;58.17;100909.78;15846642;28;20036;-61
2021/09/17 14:41:19;;;;;;;1999.90;999.90;;;;;;;18.83;58.96;100903.59;15872839;28;20067;-59
2021/09/17 14:48:51;;;;;;;1999.90;999.90;;;;;;;18.55;59.93;100895.53;15875169;28;20050;-61
2021/09/17 14:56:25;;;;;;;1999.90;999.90;;;;;;;18.54;59.91;100900.38;15873258;27;20389;-60
2021/09/17 15:03:57;;;;;;;1999.90;999.90;;;;;;;18.55;59.97;100906.84;15855836;27;20155;-59
2021/09/17 15:11:38;;;;;;;1999.90;999.90;;;;;;;18.88;59.19;100909.75;15873099;28;20400;-60
2021/09/17 15:19:11;;;;;;;1999.90;999.90;;;;;;;18.62;59.34;100896.44;15854941;28;20055;-60
2021/09/17 15:26:44;;;;;;;1999.90;999.90;;;;;;;18.84;59.86;100889.09;15854826;28;20039;-59
2021/09/17 15:34:17;;;;;;;1999.90;999.90;;;;;;;19.02;58.05;100892.94;15870315;27;20040;-57
2021/09/17 15:41:51;;;;;;;1999.90;999.90;;;;;;;18.73;58.69;100882.47;15852573;28;20040;-59
2021/09/17 15:49:23;;;;;;;1999.90;999.90;;;;;;;18.84;57.65;100891.91;15871260;28;20130;-60
2021/09/17 15:56:59;;;;;;;1999.90;999.90;;;;;;;18.76;57.47;100898.69;15870945;28;20408;-60
2021/09/17 16:04:32;;;;;;;1999.90;999.90;;;;;;;18.45;58.57;100899.88;15870940;28;20047;-58
2021/09/17 16:12:11;;;;;;;1999.90;999.90;;;;;;;18.46;59.43;100910.78;15869978;28;20118;-60
2021/09/17 16:19:43;;;;;;;1999.90;999.90;;;;;;;18.20;60.01;100913.59;15849957;28;20075;-60
2021/09/17 16:27:17;;;;;;;1999.90;999.90;;;;;;;18.12;60.16;100911.84;15868929;28;20048;-60
2021/09/17 16:34:50;;;;;;;1999.90;999.90;;;;;;;18.28;60.21;100900.41;15865977;28;20095;-59
2021/09/17 16:42:26;;;;;;;1999.90;999.90;;;;;;;18.13;59.91;100899.38;15854386;28;20047;-58
2021/09/17 16:49:59;;;;;;;1999.90;999.90;;;;;;;17.97;62.23;100907.19;15885335;27;20203;-59
2021/09/17 16:57:44;;;;;;;1999.90;999.90;;;;;;;17.75;61.10;100903.22;15847000;28;20044;-60
2021/09/17 17:05:18;;;;;;;1999.90;999.90;;;;;;;17.62;60.87;100899.75;15822493;28;20071;-60
2021/09/17 17:12:52;;;;;;;1999.90;999.90;;;;;;;17.72;61.23;100909.63;15826728;27;20513;-61
2021/09/17 17:20:28;;;;;;;1999.90;999.90;;;;;;;17.55;61.78;100919.34;15856589;28;20048;-60
2021/09/17 17:28:02;;;;;;;1999.90;999.90;;;;;;;17.43;61.19;100914.72;15851378;28;20127;-58
2021/09/17 17:35:38;;;;;;;1999.90;999.90;;;;;;;17.40;61.89;100921.06;15858396;28;20071;-61
2021/09/17 17:43:13;;;;;;;;;;;;;;;17.41;62.63;100931.19;15803144;28;20052;-61
2021/09/17 17:50:45;;;;;;;1999.90;999.90;;;;;;;17.36;61.73;100920.22;15811170;28;19935;-60
2021/09/17 17:58:20;;;;;;;;;;;;;;;17.31;61.54;100926.97;15816805;28;20063;-57
2021/09/17 18:05:54;;;;;;;1999.90;999.90;;;;;;;17.34;62.20;100928.22;15816772;28;19923;-57
2021/09/17 18:13:39;;;;;;;1999.90;999.90;;;;;;;17.39;62.23;100936.38;15849652;28;20530;-63
2021/09/17 18:21:17;;;;;;;1999.90;999.90;;;;;;;17.29;62.86;100929.34;15844548;28;20075;-60
2021/09/17 18:28:50;;;;;;;1999.90;999.90;;;;;;;17.30;62.14;100930.19;15833175;28;20101;-61
2021/09/17 18:36:24;;;;;;;1999.90;999.90;;;;;;;17.33;62.26;100923.78;15845340;28;20051;-61
2021/09/17 18:43:58;;;;;;;1999.90;999.90;;;;;;;17.37;62.39;100935.13;15845686;28;20071;-61
2021/09/17 18:51:30;;;;;;;1999.90;999.90;;;;;;;17.06;62.17;100942.56;15839180;28;20127;-60
2021/09/17 18:59:04;;;;;;;1999.90;999.90;;;;;;;17.23;62.98;100930.84;15835607;28;20101;-59
2021/09/17 19:06:38;;;;;;;1999.90;999.90;;;;;;;17.16;63.25;100930.69;15840816;28;20409;-61
2021/09/17 19:14:18;;;;;;;1999.90;999.90;;;;;;;17.18;62.88;100948.06;15873492;28;20039;-61
2021/09/17 19:21:52;;;;;;;1999.90;999.90;;;;;;;17.24;62.82;100949.41;15811401;28;20044;-60
2021/09/17 19:29:26;;;;;;;1999.90;999.90;;;;;;;17.22;63.02;100948.97;15868857;27;20047;-61
2021/09/17 19:37:01;;;;;;;1999.90;999.90;;;;;;;17.13;62.54;100947.56;15869915;28;20455;-59
2021/09/17 19:44:38;;;;;;;1999.90;999.90;;;;;;;17.12;63.46;100952.38;15859630;28;20058;-61
2021/09/17 19:52:12;;;;;;;1999.90;999.90;;;;;;;17.21;63.21;100964.25;15862119;28;20036;-60
2021/09/17 19:59:46;;;;;;;1999.90;999.90;;;;;;;17.12;63.43;100960.03;15855351;28;20139;-55
2021/09/17 20:07:19;;;;;;;1999.90;999.90;;;;;;;17.09;63.27;100955.09;15866488;27;20075;-60
2021/09/17 20:14:53;;;;;;;1999.90;999.90;;;;;;;17.08;63.72;100971.22;15847180;28;20043;-60
2021/09/17 20:22:25;;;;;;;1999.90;999.90;;;;;;;16.98;64.33;100981.06;15846689;28;20043;-60
2021/09/17 20:30:08;;;;;;;1999.90;999.90;;;;;;;17.14;63.76;100978.19;15868077;28;20077;-60
2021/09/17 20:37:44;;;;;;;1999.90;999.90;;;;;;;17.12;64.13;100974.13;15808422;28;20043;-58
2021/09/17 20:45:23;;;;;;;1999.90;999.90;;;;;;;16.99;63.94;100976.28;15866340;28;20039;-61
2021/09/17 20:52:56;;;;;;;1999.90;999.90;;;;;;;17.09;63.74;100977.66;15774214;28;20055;-60
2021/09/17 21:00:34;;;;;;;1999.90;999.90;;;;;;;16.97;64.53;100976.63;15789750;28;20505;-59
2021/09/17 21:08:10;;;;;;;1999.90;999.90;;;;;;;17.06;64.49;100969.97;15866811;28;20044;-61
2021/09/17 21:15:44;;;;;;;1999.90;999.90;;;;;;;17.08;64.89;100957.13;15823745;28;20067;-60
2021/09/17 21:23:16;;;;;;;1999.90;999.90;;;;;;;17.00;65.67;100975.09;15826588;28;20036;-60
2021/09/17 21:30:50;;;;;;;1999.90;999.90;;;;;;;16.83;66.36;100975.50;15827004;28;20089;-61
2021/09/17 21:38:22;;;;;;;1999.90;999.90;;;;;;;16.92;65.25;100976.13;15784241;28;20065;-60
2021/09/17 21:45:56;;;;;;;1999.90;999.90;;;;;;;16.98;65.25;100977.44;15795112;28;20119;-61
2021/09/17 21:53:29;;;;;;;1999.90;999.90;;;;;;;16.76;65.98;100981.00;15816156;28;20044;-60
2021/09/17 22:01:06;;;;;;;1999.90;999.90;;;;;;;16.85;65.74;100975.97;15819892;28;20448;-60
2021/09/17 22:08:38;;;;;;;1999.90;999.90;;;;;;;16.85;66.18;100973.13;15816697;28;20074;-60
2021/09/17 22:16:14;;;;;;;1999.90;999.90;;;;;;;16.80;66.00;100981.91;15797546;28;20040;-59
2021/09/17 22:23:47;;;;;;;1999.90;999.90;;;;;;;16.80;66.71;100977.09;15813530;28;20044;-58
2021/09/17 22:31:20;;;;;;;1999.90;999.90;;;;;;;16.84;66.23;100974.31;15841446;28;20047;-60
2021/09/17 22:39:07;;;;;;;1999.90;999.90;;;;;;;16.71;65.68;100965.19;15856716;28;20577;-60
2021/09/17 22:46:51;;;;;;;1999.90;999.90;;;;;;;16.83;66.19;100959.41;15853745;28;20043;-60
2021/09/17 22:54:33;;;;;;;;;;;;;;;;;;;;;
2021/09/17 23:02:28;;;;;;;1999.90;999.90;;;;;;;16.71;66.89;100971.66;15835452;28;20047;-60
2021/09/17 23:10:03;;;;;;;1999.90;999.90;;;;;;;16.55;66.82;100962.38;15858774;28;20108;-61
2021/09/17 23:17:47;;;;;;;1999.90;999.90;;;;;;;16.56;67.15;100969.66;15870060;28;20120;-58
2021/09/17 23:25:50;;;;;;;1999.90;999.90;;;;;;;16.54;67.84;100957.13;15865911;28;20501;-59
2021/09/17 23:33:24;;;;;;;1999.90;999.90;;;;;;;16.36;67.71;100956.69;15837163;28;20127;-60
2021/09/17 23:40:56;;;;;;;1999.90;999.90;;;;;;;16.31;67.29;100959.81;15835193;28;20488;-58
2021/09/17 23:48:30;;;;;;;1999.90;999.90;;;;;;;16.45;66.64;100960.94;15841277;28;20038;-60
2021/09/17 23:56:02;;;;;;;1999.90;999.90;;;;;;;16.53;66.95;100966.75;15830732;28;20435;-60
